sensor_id;sensor_type;location;lat;lon;timestamp;P1;durP1;ratioP1;P2;durP2;ratioP2
20482;SDS011;10400;53.198;6.592;2024-03-06T00:02:25;15.98;;;9.65;;
20482;SDS011;10400;53.198;6.592;2024-03-06T00:04:51;16.30;;;9.43;;
20482;SDS011;10400;53.198;6.592;2024-03-06T00:07:16;18.38;;;9.02;;
20482;SDS011;10400;53.198;6.592;2024-03-06T00:09:42;13.45;;;8.95;;
20482;SDS011;10400;53.198;6.592;2024-03-06T00:12:08;15.98;;;8.98;;
20482;SDS011;10400;53.198;6.592;2024-03-06T00:14:34;18.25;;;10.27;;
20482;SDS011;10400;53.198;6.592;2024-03-06T00:17:01;18.58;;;8.75;;
20482;SDS011;10400;53.198;6.592;2024-03-06T00:19:29;20.20;;;9.52;;
20482;SDS011;10400;53.198;6.592;2024-03-06T00:21:55;13.50;;;7.80;;
20482;SDS011;10400;53.198;6.592;2024-03-06T00:24:21;18.95;;;8.88;;
20482;SDS011;10400;53.198;6.592;2024-03-06T00:26:48;15.77;;;8.98;;
20482;SDS011;10400;53.198;6.592;2024-03-06T00:29:14;13.20;;;8.13;;
20482;SDS011;10400;53.198;6.592;2024-03-06T00:31:43;16.23;;;9.20;;
20482;SDS011;10400;53.198;6.592;2024-03-06T00:34:10;15.60;;;8.30;;
20482;SDS011;10400;53.198;6.592;2024-03-06T00:36:39;16.35;;;9.05;;
20482;SDS011;10400;53.198;6.592;2024-03-06T00:39:05;19.23;;;9.00;;
20482;SDS011;10400;53.198;6.592;2024-03-06T00:41:30;16.90;;;9.68;;
20482;SDS011;10400;53.198;6.592;2024-03-06T00:43:56;16.98;;;8.30;;
20482;SDS011;10400;53.198;6.592;2024-03-06T00:46:22;15.32;;;8.45;;
20482;SDS011;10400;53.198;6.592;2024-03-06T00:48:48;15.93;;;8.88;;
20482;SDS011;10400;53.198;6.592;2024-03-06T00:51:14;16.23;;;9.23;;
20482;SDS011;10400;53.198;6.592;2024-03-06T00:53:39;17.08;;;8.80;;
20482;SDS011;10400;53.198;6.592;2024-03-06T00:56:05;21.05;;;9.30;;
20482;SDS011;10400;53.198;6.592;2024-03-06T00:58:32;14.25;;;8.95;;
20482;SDS011;10400;53.198;6.592;2024-03-06T01:00:57;16.70;;;8.57;;
20482;SDS011;10400;53.198;6.592;2024-03-06T01:03:23;14.75;;;9.15;;
20482;SDS011;10400;53.198;6.592;2024-03-06T01:05:49;16.15;;;8.13;;
20482;SDS011;10400;53.198;6.592;2024-03-06T01:08:17;17.50;;;9.02;;
20482;SDS011;10400;53.198;6.592;2024-03-06T01:10:43;17.13;;;8.63;;
20482;SDS011;10400;53.198;6.592;2024-03-06T01:13:09;13.75;;;8.13;;
20482;SDS011;10400;53.198;6.592;2024-03-06T01:15:36;15.07;;;7.88;;
20482;SDS011;10400;53.198;6.592;2024-03-06T01:18:02;13.20;;;8.60;;
20482;SDS011;10400;53.198;6.592;2024-03-06T01:20:28;14.02;;;8.40;;
20482;SDS011;10400;53.198;6.592;2024-03-06T01:22:54;16.63;;;8.73;;
20482;SDS011;10400;53.198;6.592;2024-03-06T01:25:20;14.90;;;8.27;;
20482;SDS011;10400;53.198;6.592;2024-03-06T01:27:47;13.45;;;8.55;;
20482;SDS011;10400;53.198;6.592;2024-03-06T01:30:14;15.43;;;8.88;;
20482;SDS011;10400;53.198;6.592;2024-03-06T01:32:39;15.52;;;8.15;;
20482;SDS011;10400;53.198;6.592;2024-03-06T01:35:05;15.35;;;7.80;;
20482;SDS011;10400;53.198;6.592;2024-03-06T01:37:31;16.30;;;9.15;;
20482;SDS011;10400;53.198;6.592;2024-03-06T01:39:57;16.23;;;9.10;;
20482;SDS011;10400;53.198;6.592;2024-03-06T01:42:23;13.07;;;8.15;;
20482;SDS011;10400;53.198;6.592;2024-03-06T01:44:49;13.85;;;8.45;;
20482;SDS011;10400;53.198;6.592;2024-03-06T01:47:15;17.75;;;8.90;;
20482;SDS011;10400;53.198;6.592;2024-03-06T01:49:40;15.55;;;8.70;;
20482;SDS011;10400;53.198;6.592;2024-03-06T01:52:07;15.00;;;8.50;;
20482;SDS011;10400;53.198;6.592;2024-03-06T01:54:40;16.45;;;8.93;;
20482;SDS011;10400;53.198;6.592;2024-03-06T01:57:06;15.27;;;8.38;;
20482;SDS011;10400;53.198;6.592;2024-03-06T01:59:33;16.00;;;8.93;;
20482;SDS011;10400;53.198;6.592;2024-03-06T02:01:59;15.20;;;9.13;;
20482;SDS011;10400;53.198;6.592;2024-03-06T02:04:29;15.57;;;9.10;;
20482;SDS011;10400;53.198;6.592;2024-03-06T02:06:55;15.63;;;9.32;;
20482;SDS011;10400;53.198;6.592;2024-03-06T02:09:21;17.80;;;9.18;;
20482;SDS011;10400;53.198;6.592;2024-03-06T02:11:48;18.77;;;9.50;;
20482;SDS011;10400;53.198;6.592;2024-03-06T02:14:15;14.70;;;8.60;;
20482;SDS011;10400;53.198;6.592;2024-03-06T02:16:41;16.15;;;8.82;;
20482;SDS011;10400;53.198;6.592;2024-03-06T02:19:07;15.32;;;9.25;;
20482;SDS011;10400;53.198;6.592;2024-03-06T02:21:33;13.48;;;8.95;;
20482;SDS011;10400;53.198;6.592;2024-03-06T02:23:59;17.60;;;8.63;;
20482;SDS011;10400;53.198;6.592;2024-03-06T02:26:25;18.15;;;9.10;;
20482;SDS011;10400;53.198;6.592;2024-03-06T02:28:51;16.42;;;9.57;;
20482;SDS011;10400;53.198;6.592;2024-03-06T02:31:18;15.75;;;9.02;;
20482;SDS011;10400;53.198;6.592;2024-03-06T02:33:48;18.48;;;9.57;;
20482;SDS011;10400;53.198;6.592;2024-03-06T02:36:15;15.32;;;9.48;;
20482;SDS011;10400;53.198;6.592;2024-03-06T02:38:42;15.75;;;9.13;;
20482;SDS011;10400;53.198;6.592;2024-03-06T02:41:08;14.68;;;9.60;;
20482;SDS011;10400;53.198;6.592;2024-03-06T02:43:34;19.33;;;10.20;;
20482;SDS011;10400;53.198;6.592;2024-03-06T02:46:00;15.95;;;9.52;;
20482;SDS011;10400;53.198;6.592;2024-03-06T02:48:26;19.92;;;9.63;;
20482;SDS011;10400;53.198;6.592;2024-03-06T02:50:51;15.90;;;9.32;;
20482;SDS011;10400;53.198;6.592;2024-03-06T02:53:17;20.35;;;9.85;;
20482;SDS011;10400;53.198;6.592;2024-03-06T02:55:43;14.75;;;9.00;;
20482;SDS011;10400;53.198;6.592;2024-03-06T02:58:08;14.80;;;9.23;;
20482;SDS011;10400;53.198;6.592;2024-03-06T03:00:34;17.33;;;9.63;;
20482;SDS011;10400;53.198;6.592;2024-03-06T03:03:00;15.10;;;8.98;;
20482;SDS011;10400;53.198;6.592;2024-03-06T03:05:25;19.80;;;9.85;;
20482;SDS011;10400;53.198;6.592;2024-03-06T03:07:51;17.30;;;10.38;;
20482;SDS011;10400;53.198;6.592;2024-03-06T03:10:18;14.95;;;9.95;;
20482;SDS011;10400;53.198;6.592;2024-03-06T03:12:43;15.73;;;9.23;;
20482;SDS011;10400;53.198;6.592;2024-03-06T03:15:10;15.65;;;9.95;;
20482;SDS011;10400;53.198;6.592;2024-03-06T03:17:35;20.00;;;10.45;;
20482;SDS011;10400;53.198;6.592;2024-03-06T03:20:01;16.13;;;9.85;;
20482;SDS011;10400;53.198;6.592;2024-03-06T03:22:35;14.65;;;9.48;;
20482;SDS011;10400;53.198;6.592;2024-03-06T03:25:02;17.42;;;10.15;;
20482;SDS011;10400;53.198;6.592;2024-03-06T03:27:28;16.48;;;10.10;;
20482;SDS011;10400;53.198;6.592;2024-03-06T03:29:54;16.77;;;11.27;;
20482;SDS011;10400;53.198;6.592;2024-03-06T03:32:19;22.92;;;13.32;;
20482;SDS011;10400;53.198;6.592;2024-03-06T03:34:45;23.42;;;12.57;;
20482;SDS011;10400;53.198;6.592;2024-03-06T03:37:12;21.92;;;12.85;;
20482;SDS011;10400;53.198;6.592;2024-03-06T03:39:38;14.73;;;10.07;;
20482;SDS011;10400;53.198;6.592;2024-03-06T03:42:03;18.13;;;10.40;;
20482;SDS011;10400;53.198;6.592;2024-03-06T03:44:29;15.63;;;10.68;;
20482;SDS011;10400;53.198;6.592;2024-03-06T03:46:55;22.13;;;11.15;;
20482;SDS011;10400;53.198;6.592;2024-03-06T03:49:20;17.55;;;10.38;;
20482;SDS011;10400;53.198;6.592;2024-03-06T03:51:46;20.27;;;11.48;;
20482;SDS011;10400;53.198;6.592;2024-03-06T03:54:12;19.38;;;10.43;;
20482;SDS011;10400;53.198;6.592;2024-03-06T03:56:37;20.02;;;11.32;;
20482;SDS011;10400;53.198;6.592;2024-03-06T03:59:03;20.48;;;10.43;;
20482;SDS011;10400;53.198;6.592;2024-03-06T04:01:29;19.55;;;11.35;;
20482;SDS011;10400;53.198;6.592;2024-03-06T04:03:54;16.38;;;10.35;;
20482;SDS011;10400;53.198;6.592;2024-03-06T04:06:20;16.23;;;9.90;;
20482;SDS011;10400;53.198;6.592;2024-03-06T04:08:46;17.85;;;10.45;;
20482;SDS011;10400;53.198;6.592;2024-03-06T04:11:11;18.48;;;10.00;;
20482;SDS011;10400;53.198;6.592;2024-03-06T04:13:37;21.95;;;10.60;;
20482;SDS011;10400;53.198;6.592;2024-03-06T04:16:04;16.23;;;10.27;;
20482;SDS011;10400;53.198;6.592;2024-03-06T04:18:33;17.88;;;11.00;;
20482;SDS011;10400;53.198;6.592;2024-03-06T04:21:01;23.20;;;10.40;;
20482;SDS011;10400;53.198;6.592;2024-03-06T04:23:31;17.55;;;10.85;;
20482;SDS011;10400;53.198;6.592;2024-03-06T04:25:57;20.83;;;11.13;;
20482;SDS011;10400;53.198;6.592;2024-03-06T04:28:23;18.30;;;10.95;;
20482;SDS011;10400;53.198;6.592;2024-03-06T04:30:49;18.77;;;11.13;;
20482;SDS011;10400;53.198;6.592;2024-03-06T04:33:15;20.75;;;11.32;;
20482;SDS011;10400;53.198;6.592;2024-03-06T04:35:41;18.50;;;11.02;;
20482;SDS011;10400;53.198;6.592;2024-03-06T04:38:07;18.20;;;11.52;;
20482;SDS011;10400;53.198;6.592;2024-03-06T04:40:33;18.15;;;11.68;;
20482;SDS011;10400;53.198;6.592;2024-03-06T04:43:00;21.80;;;11.85;;
20482;SDS011;10400;53.198;6.592;2024-03-06T04:45:26;18.60;;;11.88;;
20482;SDS011;10400;53.198;6.592;2024-03-06T04:47:52;18.23;;;11.65;;
20482;SDS011;10400;53.198;6.592;2024-03-06T04:50:17;21.77;;;11.38;;
20482;SDS011;10400;53.198;6.592;2024-03-06T04:52:43;19.63;;;10.77;;
20482;SDS011;10400;53.198;6.592;2024-03-06T04:55:11;18.30;;;10.68;;
20482;SDS011;10400;53.198;6.592;2024-03-06T04:57:38;20.35;;;12.02;;
20482;SDS011;10400;53.198;6.592;2024-03-06T05:00:05;16.77;;;11.50;;
20482;SDS011;10400;53.198;6.592;2024-03-06T05:02:33;18.65;;;11.40;;
20482;SDS011;10400;53.198;6.592;2024-03-06T05:05:00;19.33;;;12.15;;
20482;SDS011;10400;53.198;6.592;2024-03-06T05:07:27;19.10;;;12.13;;
20482;SDS011;10400;53.198;6.592;2024-03-06T05:09:54;21.25;;;12.35;;
20482;SDS011;10400;53.198;6.592;2024-03-06T05:12:20;20.95;;;12.05;;
20482;SDS011;10400;53.198;6.592;2024-03-06T05:14:46;19.55;;;12.70;;
20482;SDS011;10400;53.198;6.592;2024-03-06T05:17:12;21.48;;;12.15;;
20482;SDS011;10400;53.198;6.592;2024-03-06T05:19:37;22.02;;;12.77;;
20482;SDS011;10400;53.198;6.592;2024-03-06T05:22:03;21.95;;;13.05;;
20482;SDS011;10400;53.198;6.592;2024-03-06T05:24:30;19.17;;;11.93;;
20482;SDS011;10400;53.198;6.592;2024-03-06T05:26:56;20.40;;;12.00;;
20482;SDS011;10400;53.198;6.592;2024-03-06T05:29:21;22.25;;;12.05;;
20482;SDS011;10400;53.198;6.592;2024-03-06T05:31:47;18.50;;;12.27;;
20482;SDS011;10400;53.198;6.592;2024-03-06T05:34:12;25.10;;;12.73;;
20482;SDS011;10400;53.198;6.592;2024-03-06T05:36:38;22.23;;;12.65;;
20482;SDS011;10400;53.198;6.592;2024-03-06T05:39:04;18.20;;;12.30;;
20482;SDS011;10400;53.198;6.592;2024-03-06T05:41:36;24.92;;;12.25;;
20482;SDS011;10400;53.198;6.592;2024-03-06T05:44:02;19.83;;;13.13;;
20482;SDS011;10400;53.198;6.592;2024-03-06T05:46:29;20.50;;;12.15;;
20482;SDS011;10400;53.198;6.592;2024-03-06T05:48:54;21.65;;;12.40;;
20482;SDS011;10400;53.198;6.592;2024-03-06T05:51:20;19.02;;;11.93;;
20482;SDS011;10400;53.198;6.592;2024-03-06T05:53:46;21.77;;;11.88;;
20482;SDS011;10400;53.198;6.592;2024-03-06T05:56:11;19.02;;;11.88;;
20482;SDS011;10400;53.198;6.592;2024-03-06T05:58:37;26.02;;;13.95;;
20482;SDS011;10400;53.198;6.592;2024-03-06T06:01:02;21.88;;;13.18;;
20482;SDS011;10400;53.198;6.592;2024-03-06T06:03:29;19.67;;;12.27;;
20482;SDS011;10400;53.198;6.592;2024-03-06T06:05:55;19.60;;;11.95;;
20482;SDS011;10400;53.198;6.592;2024-03-06T06:08:21;18.40;;;12.60;;
20482;SDS011;10400;53.198;6.592;2024-03-06T06:10:47;23.15;;;13.23;;
20482;SDS011;10400;53.198;6.592;2024-03-06T06:13:12;23.00;;;12.90;;
20482;SDS011;10400;53.198;6.592;2024-03-06T06:15:38;22.98;;;13.38;;
20482;SDS011;10400;53.198;6.592;2024-03-06T06:18:04;24.55;;;13.77;;
20482;SDS011;10400;53.198;6.592;2024-03-06T06:20:29;22.55;;;15.50;;
20482;SDS011;10400;53.198;6.592;2024-03-06T06:22:55;25.70;;;15.32;;
20482;SDS011;10400;53.198;6.592;2024-03-06T06:25:22;21.50;;;13.88;;
20482;SDS011;10400;53.198;6.592;2024-03-06T06:27:48;23.50;;;14.25;;
20482;SDS011;10400;53.198;6.592;2024-03-06T06:30:14;19.65;;;13.52;;
20482;SDS011;10400;53.198;6.592;2024-03-06T06:32:41;21.40;;;13.27;;
20482;SDS011;10400;53.198;6.592;2024-03-06T06:35:08;24.95;;;15.05;;
20482;SDS011;10400;53.198;6.592;2024-03-06T06:37:34;18.83;;;12.40;;
20482;SDS011;10400;53.198;6.592;2024-03-06T06:40:00;22.20;;;13.32;;
20482;SDS011;10400;53.198;6.592;2024-03-06T06:42:31;20.20;;;12.82;;
20482;SDS011;10400;53.198;6.592;2024-03-06T06:45:01;20.05;;;12.68;;
20482;SDS011;10400;53.198;6.592;2024-03-06T06:47:27;19.85;;;12.40;;
20482;SDS011;10400;53.198;6.592;2024-03-06T06:49:53;19.70;;;12.20;;
20482;SDS011;10400;53.198;6.592;2024-03-06T06:52:19;23.15;;;12.57;;
20482;SDS011;10400;53.198;6.592;2024-03-06T06:54:45;26.42;;;13.05;;
20482;SDS011;10400;53.198;6.592;2024-03-06T06:57:10;23.75;;;12.75;;
20482;SDS011;10400;53.198;6.592;2024-03-06T06:59:36;21.33;;;13.32;;
20482;SDS011;10400;53.198;6.592;2024-03-06T07:02:02;21.30;;;12.80;;
20482;SDS011;10400;53.198;6.592;2024-03-06T07:04:28;20.00;;;11.82;;
20482;SDS011;10400;53.198;6.592;2024-03-06T07:06:54;19.55;;;12.60;;
20482;SDS011;10400;53.198;6.592;2024-03-06T07:09:19;19.13;;;12.95;;
20482;SDS011;10400;53.198;6.592;2024-03-06T07:11:45;23.00;;;14.00;;
20482;SDS011;10400;53.198;6.592;2024-03-06T07:14:12;23.85;;;14.93;;
20482;SDS011;10400;53.198;6.592;2024-03-06T07:16:44;24.52;;;15.55;;
20482;SDS011;10400;53.198;6.592;2024-03-06T07:19:10;21.60;;;13.00;;
20482;SDS011;10400;53.198;6.592;2024-03-06T07:21:36;22.23;;;12.80;;
20482;SDS011;10400;53.198;6.592;2024-03-06T07:24:02;21.15;;;13.23;;
20482;SDS011;10400;53.198;6.592;2024-03-06T07:26:29;20.67;;;12.27;;
20482;SDS011;10400;53.198;6.592;2024-03-06T07:28:57;19.38;;;12.02;;
20482;SDS011;10400;53.198;6.592;2024-03-06T07:31:23;20.08;;;12.48;;
20482;SDS011;10400;53.198;6.592;2024-03-06T07:33:49;22.70;;;13.20;;
20482;SDS011;10400;53.198;6.592;2024-03-06T07:36:15;19.13;;;12.57;;
20482;SDS011;10400;53.198;6.592;2024-03-06T07:38:41;21.55;;;12.48;;
20482;SDS011;10400;53.198;6.592;2024-03-06T07:41:07;20.95;;;12.55;;
20482;SDS011;10400;53.198;6.592;2024-03-06T07:43:33;18.83;;;12.45;;
20482;SDS011;10400;53.198;6.592;2024-03-06T07:45:59;23.45;;;14.05;;
20482;SDS011;10400;53.198;6.592;2024-03-06T07:48:24;23.73;;;14.27;;
20482;SDS011;10400;53.198;6.592;2024-03-06T07:50:50;21.42;;;13.18;;
20482;SDS011;10400;53.198;6.592;2024-03-06T07:53:16;20.50;;;13.07;;
20482;SDS011;10400;53.198;6.592;2024-03-06T07:55:42;22.50;;;13.35;;
20482;SDS011;10400;53.198;6.592;2024-03-06T07:58:08;25.35;;;13.45;;
20482;SDS011;10400;53.198;6.592;2024-03-06T08:00:35;21.52;;;12.48;;
20482;SDS011;10400;53.198;6.592;2024-03-06T08:03:01;24.05;;;13.50;;
20482;SDS011;10400;53.198;6.592;2024-03-06T08:05:27;22.90;;;13.05;;
20482;SDS011;10400;53.198;6.592;2024-03-06T08:07:53;23.05;;;12.82;;
20482;SDS011;10400;53.198;6.592;2024-03-06T08:10:19;24.92;;;13.77;;
20482;SDS011;10400;53.198;6.592;2024-03-06T08:12:45;23.95;;;14.30;;
20482;SDS011;10400;53.198;6.592;2024-03-06T08:15:13;23.80;;;14.13;;
20482;SDS011;10400;53.198;6.592;2024-03-06T08:17:41;21.15;;;13.95;;
20482;SDS011;10400;53.198;6.592;2024-03-06T08:20:08;23.95;;;12.15;;
20482;SDS011;10400;53.198;6.592;2024-03-06T08:22:36;19.90;;;12.27;;
20482;SDS011;10400;53.198;6.592;2024-03-06T08:25:12;21.50;;;12.30;;
20482;SDS011;10400;53.198;6.592;2024-03-06T08:27:40;22.58;;;13.18;;
20482;SDS011;10400;53.198;6.592;2024-03-06T08:30:06;23.85;;;13.48;;
20482;SDS011;10400;53.198;6.592;2024-03-06T08:32:33;20.63;;;13.18;;
20482;SDS011;10400;53.198;6.592;2024-03-06T08:35:10;23.00;;;14.27;;
20482;SDS011;10400;53.198;6.592;2024-03-06T08:37:40;22.20;;;14.60;;
20482;SDS011;10400;53.198;6.592;2024-03-06T08:40:09;21.65;;;13.05;;
20482;SDS011;10400;53.198;6.592;2024-03-06T08:42:39;22.45;;;13.15;;
20482;SDS011;10400;53.198;6.592;2024-03-06T08:45:06;24.00;;;13.02;;
20482;SDS011;10400;53.198;6.592;2024-03-06T08:47:33;22.92;;;13.40;;
20482;SDS011;10400;53.198;6.592;2024-03-06T08:50:02;22.38;;;13.05;;
20482;SDS011;10400;53.198;6.592;2024-03-06T08:52:28;19.15;;;12.50;;
20482;SDS011;10400;53.198;6.592;2024-03-06T08:54:56;21.98;;;13.65;;
20482;SDS011;10400;53.198;6.592;2024-03-06T08:57:21;26.90;;;13.20;;
20482;SDS011;10400;53.198;6.592;2024-03-06T08:59:47;23.33;;;14.15;;
20482;SDS011;10400;53.198;6.592;2024-03-06T09:04:41;22.02;;;14.05;;
20482;SDS011;10400;53.198;6.592;2024-03-06T09:07:07;22.27;;;12.63;;
20482;SDS011;10400;53.198;6.592;2024-03-06T09:09:33;20.77;;;13.18;;
20482;SDS011;10400;53.198;6.592;2024-03-06T09:12:00;25.08;;;13.50;;
20482;SDS011;10400;53.198;6.592;2024-03-06T09:14:26;22.35;;;13.45;;
20482;SDS011;10400;53.198;6.592;2024-03-06T09:16:51;23.05;;;13.27;;
20482;SDS011;10400;53.198;6.592;2024-03-06T09:19:17;26.42;;;13.20;;
20482;SDS011;10400;53.198;6.592;2024-03-06T09:21:43;21.70;;;13.32;;
20482;SDS011;10400;53.198;6.592;2024-03-06T09:24:08;24.33;;;13.48;;
20482;SDS011;10400;53.198;6.592;2024-03-06T09:26:34;23.25;;;14.10;;
20482;SDS011;10400;53.198;6.592;2024-03-06T09:29:00;22.73;;;13.45;;
20482;SDS011;10400;53.198;6.592;2024-03-06T09:31:26;23.80;;;14.10;;
20482;SDS011;10400;53.198;6.592;2024-03-06T09:33:52;24.35;;;13.98;;
20482;SDS011;10400;53.198;6.592;2024-03-06T09:36:18;22.67;;;14.23;;
20482;SDS011;10400;53.198;6.592;2024-03-06T09:38:44;25.33;;;14.20;;
20482;SDS011;10400;53.198;6.592;2024-03-06T09:41:10;25.50;;;14.45;;
20482;SDS011;10400;53.198;6.592;2024-03-06T09:43:35;22.83;;;14.48;;
20482;SDS011;10400;53.198;6.592;2024-03-06T09:46:01;24.48;;;13.95;;
20482;SDS011;10400;53.198;6.592;2024-03-06T09:48:29;22.52;;;14.40;;
20482;SDS011;10400;53.198;6.592;2024-03-06T09:50:57;27.23;;;14.77;;
20482;SDS011;10400;53.198;6.592;2024-03-06T09:53:26;26.83;;;15.10;;
20482;SDS011;10400;53.198;6.592;2024-03-06T09:55:51;29.35;;;15.85;;
20482;SDS011;10400;53.198;6.592;2024-03-06T09:58:18;28.00;;;16.27;;
20482;SDS011;10400;53.198;6.592;2024-03-06T10:00:44;26.83;;;15.13;;
20482;SDS011;10400;53.198;6.592;2024-03-06T10:03:12;27.90;;;15.35;;
20482;SDS011;10400;53.198;6.592;2024-03-06T10:05:38;27.83;;;15.63;;
20482;SDS011;10400;53.198;6.592;2024-03-06T10:08:05;25.88;;;14.95;;
20482;SDS011;10400;53.198;6.592;2024-03-06T10:10:31;26.25;;;16.10;;
20482;SDS011;10400;53.198;6.592;2024-03-06T10:12:57;30.52;;;15.95;;
20482;SDS011;10400;53.198;6.592;2024-03-06T10:15:25;27.05;;;15.48;;
20482;SDS011;10400;53.198;6.592;2024-03-06T10:17:52;25.50;;;15.27;;
20482;SDS011;10400;53.198;6.592;2024-03-06T10:20:34;23.35;;;14.43;;
20482;SDS011;10400;53.198;6.592;2024-03-06T10:23:00;27.30;;;14.90;;
20482;SDS011;10400;53.198;6.592;2024-03-06T10:25:26;30.83;;;15.82;;
20482;SDS011;10400;53.198;6.592;2024-03-06T10:28:05;27.35;;;15.32;;
20482;SDS011;10400;53.198;6.592;2024-03-06T10:30:34;30.90;;;15.32;;
20482;SDS011;10400;53.198;6.592;2024-03-06T10:33:05;25.05;;;14.82;;
20482;SDS011;10400;53.198;6.592;2024-03-06T10:35:34;25.08;;;14.30;;
20482;SDS011;10400;53.198;6.592;2024-03-06T10:38:04;26.38;;;14.85;;
20482;SDS011;10400;53.198;6.592;2024-03-06T10:40:32;30.45;;;13.95;;
20482;SDS011;10400;53.198;6.592;2024-03-06T10:42:59;27.30;;;15.02;;
20482;SDS011;10400;53.198;6.592;2024-03-06T10:45:32;24.13;;;14.32;;
20482;SDS011;10400;53.198;6.592;2024-03-06T10:48:13;26.90;;;14.88;;
20482;SDS011;10400;53.198;6.592;2024-03-06T10:50:40;25.00;;;14.52;;
20482;SDS011;10400;53.198;6.592;2024-03-06T10:53:12;24.70;;;14.63;;
20482;SDS011;10400;53.198;6.592;2024-03-06T10:55:39;25.33;;;14.10;;
20482;SDS011;10400;53.198;6.592;2024-03-06T10:58:06;27.15;;;14.60;;
20482;SDS011;10400;53.198;6.592;2024-03-06T11:00:34;23.98;;;14.77;;
20482;SDS011;10400;53.198;6.592;2024-03-06T11:03:06;27.15;;;15.07;;
20482;SDS011;10400;53.198;6.592;2024-03-06T11:05:38;22.23;;;13.85;;
20482;SDS011;10400;53.198;6.592;2024-03-06T11:08:14;25.58;;;14.82;;
20482;SDS011;10400;53.198;6.592;2024-03-06T11:10:41;27.48;;;15.43;;
20482;SDS011;10400;53.198;6.592;2024-03-06T11:13:09;28.58;;;14.77;;
20482;SDS011;10400;53.198;6.592;2024-03-06T11:15:46;24.88;;;14.85;;
20482;SDS011;10400;53.198;6.592;2024-03-06T11:21:27;24.92;;;14.82;;
20482;SDS011;10400;53.198;6.592;2024-03-06T11:26:47;24.70;;;14.70;;
20482;SDS011;10400;53.198;6.592;2024-03-06T11:29:17;29.00;;;15.90;;
20482;SDS011;10400;53.198;6.592;2024-03-06T11:32:03;28.13;;;16.20;;
20482;SDS011;10400;53.198;6.592;2024-03-06T11:34:32;25.90;;;15.10;;
20482;SDS011;10400;53.198;6.592;2024-03-06T11:36:59;24.70;;;14.40;;
20482;SDS011;10400;53.198;6.592;2024-03-06T11:39:32;28.20;;;16.10;;
20482;SDS011;10400;53.198;6.592;2024-03-06T11:42:01;29.33;;;15.48;;
20482;SDS011;10400;53.198;6.592;2024-03-06T11:44:29;30.05;;;17.15;;
20482;SDS011;10400;53.198;6.592;2024-03-06T11:47:00;29.20;;;16.83;;
20482;SDS011;10400;53.198;6.592;2024-03-06T11:49:32;25.65;;;15.73;;
20482;SDS011;10400;53.198;6.592;2024-03-06T11:52:00;27.38;;;16.92;;
20482;SDS011;10400;53.198;6.592;2024-03-06T11:54:33;29.95;;;16.88;;
20482;SDS011;10400;53.198;6.592;2024-03-06T11:57:00;28.00;;;16.73;;
20482;SDS011;10400;53.198;6.592;2024-03-06T11:59:28;33.80;;;17.80;;
20482;SDS011;10400;53.198;6.592;2024-03-06T12:01:58;27.80;;;16.60;;
20482;SDS011;10400;53.198;6.592;2024-03-06T12:04:32;25.08;;;17.00;;
20482;SDS011;10400;53.198;6.592;2024-03-06T12:07:00;29.63;;;17.08;;
20482;SDS011;10400;53.198;6.592;2024-03-06T12:09:33;33.58;;;18.48;;
20482;SDS011;10400;53.198;6.592;2024-03-06T12:11:59;33.50;;;17.50;;
20482;SDS011;10400;53.198;6.592;2024-03-06T12:14:25;30.65;;;18.77;;
20482;SDS011;10400;53.198;6.592;2024-03-06T12:17:41;29.10;;;17.25;;
20482;SDS011;10400;53.198;6.592;2024-03-06T12:19:41;29.73;;;17.60;;
20482;SDS011;10400;53.198;6.592;2024-03-06T12:22:10;30.83;;;17.67;;
20482;SDS011;10400;53.198;6.592;2024-03-06T12:24:36;26.95;;;16.50;;
20482;SDS011;10400;53.198;6.592;2024-03-06T12:27:03;34.50;;;17.75;;
20482;SDS011;10400;53.198;6.592;2024-03-06T12:29:30;32.90;;;18.80;;
20482;SDS011;10400;53.198;6.592;2024-03-06T12:31:59;35.00;;;17.90;;
20482;SDS011;10400;53.198;6.592;2024-03-06T12:34:25;28.67;;;18.08;;
20482;SDS011;10400;53.198;6.592;2024-03-06T12:36:52;32.97;;;17.67;;
20482;SDS011;10400;53.198;6.592;2024-03-06T12:39:17;31.80;;;18.48;;
20482;SDS011;10400;53.198;6.592;2024-03-06T12:41:47;29.40;;;18.23;;
20482;SDS011;10400;53.198;6.592;2024-03-06T12:44:14;32.67;;;19.10;;
20482;SDS011;10400;53.198;6.592;2024-03-06T12:46:40;32.60;;;17.92;;
20482;SDS011;10400;53.198;6.592;2024-03-06T12:49:06;32.55;;;19.15;;
20482;SDS011;10400;53.198;6.592;2024-03-06T12:51:31;32.72;;;19.75;;
20482;SDS011;10400;53.198;6.592;2024-03-06T12:53:57;33.30;;;19.77;;
20482;SDS011;10400;53.198;6.592;2024-03-06T12:56:23;32.47;;;18.98;;
20482;SDS011;10400;53.198;6.592;2024-03-06T12:58:50;30.33;;;19.00;;
20482;SDS011;10400;53.198;6.592;2024-03-06T13:01:16;28.73;;;18.88;;
20482;SDS011;10400;53.198;6.592;2024-03-06T13:03:42;31.30;;;18.52;;
20482;SDS011;10400;53.198;6.592;2024-03-06T13:06:07;28.50;;;19.15;;
20482;SDS011;10400;53.198;6.592;2024-03-06T13:08:33;27.73;;;19.05;;
20482;SDS011;10400;53.198;6.592;2024-03-06T13:10:59;32.35;;;18.25;;
20482;SDS011;10400;53.198;6.592;2024-03-06T13:13:24;32.00;;;19.00;;
20482;SDS011;10400;53.198;6.592;2024-03-06T13:15:51;29.90;;;19.38;;
20482;SDS011;10400;53.198;6.592;2024-03-06T13:18:17;30.85;;;18.80;;
20482;SDS011;10400;53.198;6.592;2024-03-06T13:20:43;31.70;;;19.15;;
20482;SDS011;10400;53.198;6.592;2024-03-06T13:23:09;31.20;;;19.63;;
20482;SDS011;10400;53.198;6.592;2024-03-06T13:25:35;36.35;;;18.98;;
20482;SDS011;10400;53.198;6.592;2024-03-06T13:28:01;30.58;;;19.02;;
20482;SDS011;10400;53.198;6.592;2024-03-06T13:30:28;30.88;;;20.00;;
20482;SDS011;10400;53.198;6.592;2024-03-06T13:32:53;27.70;;;19.13;;
20482;SDS011;10400;53.198;6.592;2024-03-06T13:35:19;32.63;;;18.85;;
20482;SDS011;10400;53.198;6.592;2024-03-06T13:37:45;29.15;;;19.00;;
20482;SDS011;10400;53.198;6.592;2024-03-06T13:40:11;26.40;;;17.67;;
20482;SDS011;10400;53.198;6.592;2024-03-06T13:42:40;30.27;;;17.75;;
20482;SDS011;10400;53.198;6.592;2024-03-06T13:45:07;27.98;;;18.02;;
20482;SDS011;10400;53.198;6.592;2024-03-06T13:47:39;27.38;;;17.80;;
20482;SDS011;10400;53.198;6.592;2024-03-06T13:50:09;32.55;;;18.38;;
20482;SDS011;10400;53.198;6.592;2024-03-06T13:52:39;31.23;;;17.80;;
20482;SDS011;10400;53.198;6.592;2024-03-06T13:55:06;30.25;;;18.88;;
20482;SDS011;10400;53.198;6.592;2024-03-06T13:57:33;30.80;;;18.65;;
20482;SDS011;10400;53.198;6.592;2024-03-06T14:00:00;29.02;;;17.35;;
20482;SDS011;10400;53.198;6.592;2024-03-06T14:02:47;27.25;;;17.98;;
20482;SDS011;10400;53.198;6.592;2024-03-06T14:05:13;31.65;;;18.70;;
20482;SDS011;10400;53.198;6.592;2024-03-06T14:07:41;29.13;;;18.83;;
20482;SDS011;10400;53.198;6.592;2024-03-06T14:10:07;28.33;;;18.30;;
20482;SDS011;10400;53.198;6.592;2024-03-06T14:12:34;28.45;;;18.90;;
20482;SDS011;10400;53.198;6.592;2024-03-06T14:15:00;27.73;;;18.33;;
20482;SDS011;10400;53.198;6.592;2024-03-06T14:17:26;27.95;;;18.27;;
20482;SDS011;10400;53.198;6.592;2024-03-06T14:19:52;29.52;;;19.60;;
20482;SDS011;10400;53.198;6.592;2024-03-06T14:22:18;28.60;;;18.40;;
20482;SDS011;10400;53.198;6.592;2024-03-06T14:24:43;26.35;;;17.73;;
20482;SDS011;10400;53.198;6.592;2024-03-06T14:27:10;28.67;;;18.58;;
20482;SDS011;10400;53.198;6.592;2024-03-06T14:29:35;27.00;;;18.08;;
20482;SDS011;10400;53.198;6.592;2024-03-06T14:32:01;29.00;;;18.75;;